createdAt,value
2023-01-31T00:00:35.180Z,2.72
2023-01-31T00:03:02.753Z,2.50
2023-01-31T00:05:30.728Z,2.73
2023-01-31T00:07:58.277Z,2.97
2023-01-31T00:10:25.766Z,1.95
2023-01-31T00:12:53.485Z,2.85
2023-01-31T00:15:21.369Z,2.75
2023-01-31T00:17:50.586Z,2.55
2023-01-31T00:20:18.637Z,2.60
2023-01-31T00:22:46.204Z,2.40
2023-01-31T00:25:13.889Z,2.40
2023-01-31T00:27:41.404Z,2.63
2023-01-31T00:30:10.528Z,2.60
2023-01-31T00:32:39.139Z,2.60
2023-01-31T00:35:08.559Z,3.15
2023-01-31T00:37:36.367Z,2.60
2023-01-31T00:40:04.976Z,2.15
2023-01-31T00:42:32.586Z,2.70
2023-01-31T00:45:00.099Z,2.60
2023-01-31T00:47:27.689Z,2.95
2023-01-31T00:49:55.247Z,1.92
2023-01-31T00:52:24.140Z,2.47
2023-01-31T00:54:51.746Z,2.45
2023-01-31T00:57:19.285Z,2.08
2023-01-31T00:59:47.109Z,2.00
2023-01-31T01:02:14.687Z,2.40
2023-01-31T01:04:42.349Z,2.53
2023-01-31T01:07:09.945Z,2.17
2023-01-31T01:09:38.948Z,2.03
2023-01-31T01:12:06.891Z,1.80
2023-01-31T01:14:35.555Z,1.80
2023-01-31T01:17:04.687Z,2.28
2023-01-31T01:19:33.657Z,1.85
2023-01-31T01:22:01.495Z,2.10
2023-01-31T01:24:29.122Z,1.95
2023-01-31T01:26:58.054Z,1.80
2023-01-31T01:29:25.588Z,1.90
2023-01-31T01:31:53.208Z,2.13
2023-01-31T01:34:20.883Z,2.33
2023-01-31T01:36:48.461Z,1.73
2023-01-31T01:39:17.215Z,1.77
2023-01-31T01:41:45.045Z,1.63
2023-01-31T01:44:27.437Z,3.20
2023-01-31T01:46:56.426Z,1.60
2023-01-31T01:49:28.892Z,2.33
2023-01-31T01:51:57.472Z,2.28
2023-01-31T01:54:28.551Z,1.60
2023-01-31T01:56:59.974Z,1.73
2023-01-31T01:59:30.010Z,1.88
2023-01-31T02:01:59.033Z,2.63
2023-01-31T02:04:31.434Z,1.45
2023-01-31T02:07:00.310Z,1.80
2023-01-31T02:09:35.901Z,2.08
2023-01-31T02:12:06.374Z,2.58
2023-01-31T02:14:33.898Z,2.20
2023-01-31T02:17:02.798Z,2.05
2023-01-31T02:19:34.954Z,2.47
2023-01-31T02:22:07.971Z,2.33
2023-01-31T02:24:56.421Z,2.28
2023-01-31T02:27:32.123Z,2.50
2023-01-31T02:30:18.031Z,2.00
2023-01-31T02:32:54.528Z,2.53
2023-01-31T02:35:29.096Z,2.15
2023-01-31T02:38:02.085Z,2.40
2023-01-31T02:40:35.825Z,2.17
2023-01-31T02:43:07.039Z,2.05
2023-01-31T02:45:41.130Z,2.72
2023-01-31T02:48:16.300Z,2.15
2023-01-31T02:50:53.785Z,2.70
2023-01-31T02:53:24.981Z,2.95
2023-01-31T02:56:14.387Z,2.30
2023-01-31T02:58:43.700Z,2.30
2023-01-31T03:01:15.145Z,2.45
2023-01-31T03:03:44.625Z,2.45
2023-01-31T03:06:33.446Z,3.00
2023-01-31T03:09:03.724Z,2.50
2023-01-31T03:11:34.409Z,2.97
2023-01-31T03:14:08.341Z,2.47
2023-01-31T03:16:55.892Z,3.05
2023-01-31T03:19:29.165Z,2.38
2023-01-31T03:21:58.834Z,3.67
2023-01-31T03:24:30.066Z,2.45
2023-01-31T03:26:59.591Z,2.38
2023-01-31T03:29:28.826Z,1.92
2023-01-31T03:31:59.779Z,1.90
2023-01-31T03:34:28.930Z,2.30
2023-01-31T03:36:58.231Z,1.90
2023-01-31T03:39:38.249Z,1.83
2023-01-31T03:42:09.264Z,1.67
2023-01-31T03:44:42.469Z,2.25
2023-01-31T03:47:12.597Z,1.63
2023-01-31T03:49:43.479Z,1.70
2023-01-31T03:52:12.496Z,2.00
2023-01-31T03:54:41.892Z,1.80
2023-01-31T03:57:13.271Z,2.72
2023-01-31T03:59:41.789Z,2.60
2023-01-31T04:02:11.464Z,1.55
2023-01-31T04:04:41.624Z,2.15
2023-01-31T04:07:11.390Z,2.20
2023-01-31T04:09:39.846Z,2.00
2023-01-31T04:12:07.603Z,1.73
2023-01-31T04:14:35.145Z,2.17
2023-01-31T04:17:02.689Z,2.92
2023-01-31T04:19:30.217Z,2.33
2023-01-31T04:21:57.803Z,2.00
2023-01-31T04:24:27.596Z,2.17
2023-01-31T04:26:55.416Z,1.98
2023-01-31T04:29:22.969Z,2.13
2023-01-31T04:31:50.770Z,2.90
2023-01-31T04:34:18.259Z,2.20
2023-01-31T04:36:45.832Z,2.47
2023-01-31T04:39:14.544Z,2.70
2023-01-31T04:41:43.436Z,2.97
2023-01-31T04:44:11.894Z,2.90
2023-01-31T04:46:39.416Z,3.20
2023-01-31T04:49:07.508Z,2.20
2023-01-31T04:51:35.773Z,2.58
2023-01-31T04:54:03.311Z,2.30
2023-01-31T04:56:31.837Z,2.55
2023-01-31T04:59:00.896Z,2.60
2023-01-31T05:01:28.802Z,3.13
2023-01-31T05:03:56.580Z,2.30
2023-01-31T05:06:24.160Z,1.70
2023-01-31T05:08:52.886Z,2.50
2023-01-31T05:11:20.419Z,2.88
2023-01-31T05:13:48.208Z,2.40
2023-01-31T05:16:17.320Z,2.35
2023-01-31T05:18:44.961Z,2.70
2023-01-31T05:21:12.481Z,3.17
2023-01-31T05:23:40.186Z,2.60
2023-01-31T05:26:07.740Z,2.67
2023-01-31T05:28:35.373Z,2.75
2023-01-31T05:31:04.893Z,2.25
2023-01-31T05:33:34.378Z,1.80
2023-01-31T05:36:02.542Z,2.50
2023-01-31T05:38:31.242Z,3.08
2023-01-31T05:40:59.028Z,2.25
2023-01-31T05:43:26.728Z,3.10
2023-01-31T05:45:54.367Z,2.78
2023-01-31T05:48:21.875Z,1.65
2023-01-31T05:50:51.458Z,3.10
2023-01-31T05:53:19.679Z,2.22
2023-01-31T05:55:49.833Z,2.50
2023-01-31T05:58:17.346Z,2.00
2023-01-31T06:00:45.798Z,2.05
2023-01-31T06:03:13.529Z,2.10
2023-01-31T06:05:41.271Z,1.83
2023-01-31T06:08:10.998Z,2.07
2023-01-31T06:10:38.504Z,2.45
2023-01-31T06:13:07.363Z,1.60
2023-01-31T06:15:35.313Z,2.22
2023-01-31T06:18:02.909Z,1.98
2023-01-31T06:20:30.717Z,1.80
2023-01-31T06:23:01.023Z,2.25
2023-01-31T06:25:30.576Z,2.22
2023-01-31T06:27:58.327Z,2.22
2023-01-31T06:30:25.956Z,1.92
2023-01-31T06:32:53.640Z,1.77
2023-01-31T06:35:21.691Z,3.45
2023-01-31T06:37:49.658Z,2.55
2023-01-31T06:40:17.383Z,3.15
2023-01-31T06:42:46.293Z,2.40
2023-01-31T06:45:13.814Z,2.40
2023-01-31T06:47:41.331Z,2.22
2023-01-31T06:50:09.245Z,2.65
2023-01-31T06:52:37.202Z,2.55
2023-01-31T06:55:04.959Z,2.72
2023-01-31T06:57:32.648Z,2.20
2023-01-31T07:00:01.586Z,2.78
2023-01-31T07:02:29.345Z,3.20
2023-01-31T07:04:56.882Z,2.50
2023-01-31T07:07:24.489Z,2.17
2023-01-31T07:09:52.432Z,2.45
2023-01-31T07:12:20.023Z,2.47
2023-01-31T07:14:47.552Z,1.95
2023-01-31T07:17:16.585Z,2.95
2023-01-31T07:19:44.235Z,2.25
2023-01-31T07:22:11.849Z,2.78
2023-01-31T07:24:39.455Z,2.78
2023-01-31T07:27:06.966Z,2.53
2023-01-31T07:29:35.817Z,2.00
2023-01-31T07:32:05.431Z,3.03
2023-01-31T07:34:34.360Z,2.70
2023-01-31T07:37:02.115Z,3.25
2023-01-31T07:39:30.172Z,2.80
2023-01-31T07:41:57.926Z,2.75
2023-01-31T07:44:25.457Z,3.40
2023-01-31T07:46:54.652Z,2.95
2023-01-31T07:49:22.158Z,3.55
2023-01-31T07:51:51.296Z,2.70
2023-01-31T07:54:18.916Z,3.55
2023-01-31T07:56:46.759Z,3.97
2023-01-31T07:59:14.563Z,3.20
2023-01-31T08:01:59.673Z,4.90
2023-01-31T08:04:27.204Z,2.95
2023-01-31T08:06:56.706Z,3.90
2023-01-31T08:09:24.832Z,3.30
2023-01-31T08:11:52.476Z,3.92
2023-01-31T08:14:23.543Z,4.35
2023-01-31T08:16:51.101Z,4.30
2023-01-31T08:19:18.833Z,4.13
2023-01-31T08:21:46.377Z,3.83
2023-01-31T08:24:15.249Z,4.03
2023-01-31T08:26:43.258Z,4.85
2023-01-31T08:29:10.821Z,3.97
2023-01-31T08:31:38.526Z,4.15
2023-01-31T08:34:08.073Z,4.30
2023-01-31T08:36:36.522Z,4.18
2023-01-31T08:39:04.679Z,4.60
2023-01-31T08:41:34.406Z,4.53
2023-01-31T08:44:04.839Z,4.75
2023-01-31T08:46:33.693Z,4.97
2023-01-31T08:49:01.703Z,4.18
2023-01-31T08:51:29.419Z,4.20
2023-01-31T08:53:57.250Z,5.10
2023-01-31T08:56:26.310Z,5.00
2023-01-31T08:58:55.808Z,4.78
2023-01-31T09:01:23.797Z,4.68
2023-01-31T09:03:56.276Z,4.65
2023-01-31T09:06:25.132Z,4.68
2023-01-31T09:08:52.681Z,4.38
2023-01-31T09:11:20.607Z,4.70
2023-01-31T09:13:51.095Z,5.40
2023-01-31T09:16:21.024Z,5.35
2023-01-31T09:18:48.710Z,4.75
2023-01-31T09:21:17.221Z,5.07
2023-01-31T09:23:45.121Z,4.97
2023-01-31T09:26:13.036Z,4.93
2023-01-31T09:28:42.710Z,5.53
2023-01-31T09:31:11.696Z,4.82
2023-01-31T09:33:40.971Z,5.18
2023-01-31T09:36:09.846Z,4.95
2023-01-31T09:38:37.549Z,4.28
2023-01-31T09:41:06.301Z,4.80
2023-01-31T09:43:37.400Z,6.22
2023-01-31T09:46:07.158Z,5.20
2023-01-31T09:48:36.926Z,4.47
2023-01-31T09:51:06.522Z,4.40
2023-01-31T09:53:35.416Z,4.97
2023-01-31T09:56:11.064Z,6.10
2023-01-31T09:58:43.184Z,4.90
2023-01-31T10:01:14.990Z,4.43
2023-01-31T10:03:48.674Z,5.03
2023-01-31T10:06:21.422Z,4.50
2023-01-31T10:08:52.313Z,4.60
2023-01-31T10:11:25.653Z,4.28
2023-01-31T10:13:54.526Z,4.15
2023-01-31T10:16:25.824Z,4.15
2023-01-31T10:18:56.288Z,4.63
2023-01-31T10:21:26.784Z,4.18
2023-01-31T10:23:58.111Z,4.20
2023-01-31T10:26:28.341Z,4.53
2023-01-31T10:28:59.926Z,4.10
2023-01-31T10:31:30.718Z,3.72
2023-01-31T10:34:01.635Z,3.38
2023-01-31T10:36:34.233Z,4.20
2023-01-31T10:39:05.006Z,5.13
2023-01-31T10:41:38.960Z,4.13
2023-01-31T10:44:08.192Z,3.65
2023-01-31T10:46:35.738Z,3.88
2023-01-31T10:49:04.014Z,3.78
2023-01-31T10:51:40.762Z,4.20
2023-01-31T10:54:14.722Z,4.20
2023-01-31T10:56:43.444Z,3.42
2023-01-31T10:59:14.617Z,4.50
2023-01-31T11:01:42.421Z,3.28
2023-01-31T11:04:21.614Z,3.90
2023-01-31T11:06:50.623Z,4.15
2023-01-31T11:09:18.193Z,3.53
2023-01-31T11:11:54.896Z,4.50
2023-01-31T11:14:22.662Z,3.97
2023-01-31T11:16:50.857Z,4.10
2023-01-31T11:19:20.802Z,3.92
2023-01-31T11:21:51.260Z,3.90
2023-01-31T11:24:20.732Z,3.70
2023-01-31T11:26:52.012Z,4.13
2023-01-31T11:29:22.627Z,3.38
2023-01-31T11:31:50.615Z,3.10
2023-01-31T11:34:22.587Z,3.45
2023-01-31T11:36:51.661Z,3.50
2023-01-31T11:39:25.961Z,3.72
2023-01-31T11:41:53.801Z,3.13
2023-01-31T11:44:22.315Z,3.13
2023-01-31T11:46:52.201Z,3.33
2023-01-31T11:49:22.720Z,2.83
2023-01-31T11:51:52.050Z,2.30
2023-01-31T11:54:21.109Z,2.78
2023-01-31T11:56:49.489Z,2.80
2023-01-31T11:59:18.910Z,2.70
2023-01-31T12:01:47.442Z,2.25
2023-01-31T12:04:17.218Z,2.08
2023-01-31T12:06:55.619Z,2.15
2023-01-31T12:09:27.469Z,2.00
2023-01-31T12:11:56.189Z,2.05
2023-01-31T12:14:25.055Z,1.83
2023-01-31T12:16:55.518Z,1.70
2023-01-31T12:19:32.800Z,1.60
2023-01-31T12:22:03.948Z,1.70
2023-01-31T12:24:38.123Z,1.73
2023-01-31T12:27:12.273Z,1.38
2023-01-31T12:29:52.047Z,1.40
2023-01-31T12:32:34.024Z,1.50
2023-01-31T12:35:10.226Z,1.60
2023-01-31T12:37:42.969Z,1.67
2023-01-31T12:40:25.663Z,1.67
2023-01-31T12:42:57.334Z,1.58
2023-01-31T12:45:40.959Z,1.65
2023-01-31T12:48:14.978Z,1.30
2023-01-31T12:50:46.798Z,1.20
2023-01-31T12:53:21.303Z,1.58
2023-01-31T12:55:58.016Z,1.83
2023-01-31T12:58:34.654Z,1.60
2023-01-31T13:01:05.001Z,2.15
2023-01-31T13:03:39.063Z,1.80
2023-01-31T13:06:08.214Z,1.80
2023-01-31T13:08:36.706Z,1.60
2023-01-31T13:11:07.064Z,1.70
2023-01-31T13:13:39.276Z,1.63
2023-01-31T13:16:11.610Z,1.92
2023-01-31T13:18:39.435Z,1.90
2023-01-31T13:21:08.373Z,2.15
2023-01-31T13:23:38.855Z,2.63
2023-01-31T13:26:10.572Z,2.47
2023-01-31T13:28:41.716Z,2.58
2023-01-31T13:31:10.854Z,3.20
2023-01-31T13:33:41.153Z,3.10
2023-01-31T13:36:12.138Z,2.63
2023-01-31T13:38:40.782Z,2.97
2023-01-31T13:41:11.148Z,3.42
2023-01-31T13:43:38.684Z,3.83
2023-01-31T13:46:07.266Z,3.28
2023-01-31T13:48:37.239Z,3.33
2023-01-31T13:51:10.679Z,3.13
2023-01-31T13:53:41.509Z,3.47
2023-01-31T13:56:11.855Z,3.80
2023-01-31T13:58:40.330Z,3.80
2023-01-31T14:01:09.873Z,3.80
2023-01-31T14:03:52.288Z,4.13
2023-01-31T14:06:20.121Z,4.63
2023-01-31T14:09:00.025Z,4.10
2023-01-31T14:11:44.152Z,4.50
2023-01-31T14:14:18.991Z,3.88
2023-01-31T14:16:47.203Z,3.47
2023-01-31T14:19:33.647Z,3.47
2023-01-31T14:22:05.011Z,4.75
2023-01-31T14:25:06.055Z,3.42
2023-01-31T14:27:42.413Z,4.38
2023-01-31T14:30:24.810Z,2.97
2023-01-31T14:33:02.773Z,4.03
2023-01-31T14:35:36.320Z,3.53
2023-01-31T14:38:10.198Z,3.65
2023-01-31T14:40:42.813Z,3.47
2023-01-31T14:43:22.997Z,3.13
2023-01-31T14:46:02.764Z,4.03
2023-01-31T14:48:38.804Z,3.22
2023-01-31T14:51:14.236Z,2.40
2023-01-31T14:53:55.584Z,2.80
2023-01-31T14:56:28.559Z,1.92
2023-01-31T14:58:58.236Z,1.90
2023-01-31T15:01:33.671Z,2.60
2023-01-31T15:04:01.713Z,2.65
2023-01-31T15:06:31.160Z,3.58
2023-01-31T15:09:17.218Z,2.85
2023-01-31T15:11:46.483Z,3.00
2023-01-31T15:14:34.150Z,2.88
2023-01-31T15:17:04.331Z,3.55
2023-01-31T15:19:35.214Z,4.07
2023-01-31T15:22:05.567Z,3.03
2023-01-31T15:24:35.069Z,3.55
2023-01-31T15:27:03.642Z,3.60
2023-01-31T15:29:35.073Z,3.85
2023-01-31T15:32:06.431Z,3.35
2023-01-31T15:34:35.968Z,3.88
2023-01-31T15:37:06.827Z,3.80
2023-01-31T15:39:39.622Z,3.67
2023-01-31T15:42:22.297Z,3.97
2023-01-31T15:44:51.257Z,3.25
2023-01-31T15:47:22.671Z,4.18
2023-01-31T15:49:50.526Z,3.58
2023-01-31T15:52:18.811Z,3.65
2023-01-31T15:54:52.853Z,4.15
2023-01-31T15:57:21.198Z,4.32
2023-01-31T15:59:49.256Z,5.38
2023-01-31T16:02:23.498Z,3.88
2023-01-31T16:04:51.094Z,4.57
2023-01-31T16:07:19.346Z,3.45
2023-01-31T16:09:47.315Z,4.13
2023-01-31T16:12:15.637Z,3.53
2023-01-31T16:14:45.718Z,1.70
2023-01-31T16:17:13.671Z,1.40
2023-01-31T16:19:42.562Z,2.17
2023-01-31T16:22:24.486Z,1.33
2023-01-31T16:24:55.920Z,1.73
2023-01-31T16:27:23.955Z,1.60
2023-01-31T16:29:52.369Z,2.60
2023-01-31T16:32:21.691Z,1.75
2023-01-31T16:34:55.107Z,2.20
2023-01-31T16:37:30.241Z,2.33
2023-01-31T16:40:01.212Z,3.15
2023-01-31T16:42:30.872Z,2.10
2023-01-31T16:44:58.519Z,2.30
2023-01-31T16:47:31.986Z,2.60
2023-01-31T16:50:14.453Z,2.67
2023-01-31T16:52:43.720Z,2.80
2023-01-31T16:55:14.222Z,2.63
2023-01-31T16:57:41.762Z,2.33
2023-01-31T17:00:32.701Z,2.55
2023-01-31T17:03:01.391Z,2.30
2023-01-31T17:05:29.945Z,2.03
2023-01-31T17:07:59.542Z,2.80
2023-01-31T17:10:29.135Z,1.73
2023-01-31T17:12:58.740Z,2.58
2023-01-31T17:15:26.375Z,2.17
2023-01-31T17:17:54.319Z,2.90
2023-01-31T17:20:22.143Z,2.70
2023-01-31T17:23:00.762Z,2.17
2023-01-31T17:25:34.027Z,3.63
2023-01-31T17:28:01.817Z,3.28
2023-01-31T17:30:31.092Z,3.08
2023-01-31T17:32:59.147Z,4.10
2023-01-31T17:35:27.984Z,3.40
2023-01-31T17:37:56.148Z,3.28
2023-01-31T17:40:23.890Z,3.50
2023-01-31T17:42:53.973Z,4.43
2023-01-31T17:45:21.896Z,3.53
2023-01-31T17:47:49.672Z,4.60
2023-01-31T17:50:17.887Z,4.25
2023-01-31T17:52:45.567Z,4.93
2023-01-31T17:55:14.173Z,4.07
2023-01-31T17:57:42.261Z,5.47
2023-01-31T18:00:12.828Z,4.82
2023-01-31T18:02:41.947Z,5.15
2023-01-31T18:05:10.028Z,4.15
2023-01-31T18:07:37.940Z,5.28
2023-01-31T18:10:06.134Z,3.97
2023-01-31T18:12:35.579Z,6.18
2023-01-31T18:15:04.027Z,5.72
2023-01-31T18:17:33.156Z,4.63
2023-01-31T18:20:00.775Z,4.55
2023-01-31T18:22:28.389Z,4.70
2023-01-31T18:24:56.169Z,4.03
2023-01-31T18:27:23.833Z,4.50
2023-01-31T18:29:51.712Z,4.32
2023-01-31T18:32:20.305Z,4.45
2023-01-31T18:34:49.297Z,5.43
2023-01-31T18:37:20.225Z,4.78
2023-01-31T18:39:51.406Z,4.47
2023-01-31T18:42:19.435Z,4.22
2023-01-31T18:44:47.133Z,4.82
2023-01-31T18:47:14.815Z,4.32
2023-01-31T18:49:42.434Z,3.45
2023-01-31T18:52:11.444Z,3.90
2023-01-31T18:54:39.382Z,4.38
2023-01-31T18:57:06.932Z,4.53
2023-01-31T18:59:34.548Z,4.25
2023-01-31T19:02:02.116Z,5.10
2023-01-31T19:04:29.997Z,5.05
2023-01-31T19:06:57.965Z,4.75
2023-01-31T19:09:26.873Z,4.80
2023-01-31T19:11:54.394Z,4.90
2023-01-31T19:14:22.010Z,6.00
2023-01-31T19:16:49.582Z,5.22
2023-01-31T19:19:17.227Z,4.20
2023-01-31T19:21:44.773Z,5.25
2023-01-31T19:24:13.541Z,4.93
2023-01-31T19:26:42.992Z,5.22
2023-01-31T19:29:13.831Z,4.78
2023-01-31T19:31:41.696Z,4.95
2023-01-31T19:34:09.315Z,5.68
2023-01-31T19:36:37.673Z,5.30
2023-01-31T19:39:06.610Z,5.32
2023-01-31T19:41:34.203Z,6.90
2023-01-31T19:44:03.850Z,3.90
2023-01-31T19:46:32.442Z,4.97
2023-01-31T19:49:00.390Z,6.00
2023-01-31T19:51:28.480Z,4.43
2023-01-31T19:53:58.815Z,5.50
2023-01-31T19:56:26.507Z,4.45
2023-01-31T19:58:54.076Z,4.63
2023-01-31T20:01:23.731Z,5.28
2023-01-31T20:03:51.461Z,4.95
2023-01-31T20:06:19.889Z,4.85
2023-01-31T20:08:49.900Z,4.72
2023-01-31T20:11:17.554Z,5.38
2023-01-31T20:13:45.138Z,5.15
2023-01-31T20:16:13.981Z,4.43
2023-01-31T20:18:42.842Z,5.15
2023-01-31T20:21:13.799Z,4.60
2023-01-31T20:23:41.664Z,6.25
2023-01-31T20:26:10.565Z,5.13
2023-01-31T20:28:38.176Z,4.93
2023-01-31T20:31:06.228Z,5.20
2023-01-31T20:33:33.969Z,4.82
2023-01-31T20:36:02.973Z,4.13
2023-01-31T20:38:30.819Z,4.95
2023-01-31T20:40:58.444Z,4.40
2023-01-31T20:43:27.146Z,4.70
2023-01-31T20:46:02.073Z,4.80
2023-01-31T20:48:29.813Z,4.38
2023-01-31T20:50:57.428Z,3.90
2023-01-31T20:53:29.357Z,5.15
2023-01-31T20:55:58.217Z,3.83
2023-01-31T20:58:26.205Z,5.00
2023-01-31T21:00:54.388Z,3.38
2023-01-31T21:03:22.098Z,4.20
2023-01-31T21:05:50.203Z,4.82
2023-01-31T21:08:18.185Z,4.95
2023-01-31T21:10:50.739Z,4.00
2023-01-31T21:13:18.419Z,4.03
2023-01-31T21:15:51.646Z,4.57
2023-01-31T21:18:19.446Z,4.15
2023-01-31T21:20:47.577Z,5.70
2023-01-31T21:23:16.127Z,4.65
2023-01-31T21:25:43.692Z,4.43
2023-01-31T21:28:12.597Z,4.40
2023-01-31T21:30:40.382Z,3.90
2023-01-31T21:33:08.132Z,4.72
2023-01-31T21:35:35.746Z,3.20
2023-01-31T21:38:03.317Z,2.45
2023-01-31T21:40:30.951Z,2.92
2023-01-31T21:42:57.552Z,3.38
2023-01-31T21:45:40.347Z,3.22
2023-01-31T21:48:26.244Z,3.42
2023-01-31T21:50:54.057Z,2.75
2023-01-31T21:53:21.586Z,2.80
2023-01-31T21:55:49.064Z,3.15
2023-01-31T21:58:16.722Z,2.85
2023-01-31T22:00:45.670Z,3.88
2023-01-31T22:03:13.492Z,3.30
2023-01-31T22:05:41.211Z,4.25
2023-01-31T22:08:08.801Z,3.85
2023-01-31T22:10:36.347Z,4.35
2023-01-31T22:13:03.911Z,3.85
2023-01-31T22:15:31.444Z,3.97
2023-01-31T22:18:00.433Z,4.38
2023-01-31T22:20:28.044Z,3.53
2023-01-31T22:22:55.599Z,4.35
2023-01-31T22:25:23.258Z,3.33
2023-01-31T22:27:51.999Z,4.20
2023-01-31T22:30:19.676Z,3.80
2023-01-31T22:32:47.173Z,4.28
2023-01-31T22:35:16.375Z,3.90
2023-01-31T22:37:44.226Z,3.70
2023-01-31T22:40:12.448Z,3.72
2023-01-31T22:42:40.164Z,3.63
2023-01-31T22:45:08.293Z,3.53
2023-01-31T22:47:35.949Z,3.72
2023-01-31T22:50:03.817Z,2.85
2023-01-31T22:52:32.724Z,3.42
2023-01-31T22:55:00.266Z,3.55
2023-01-31T22:57:27.773Z,3.20
2023-01-31T22:59:55.365Z,3.30
2023-01-31T23:02:22.898Z,3.00
2023-01-31T23:04:51.435Z,3.08
2023-01-31T23:07:18.956Z,3.33
2023-01-31T23:09:48.779Z,3.05
2023-01-31T23:12:16.366Z,4.20
2023-01-31T23:14:43.884Z,3.63
2023-01-31T23:17:28.982Z,3.45
2023-01-31T23:19:56.454Z,3.63
2023-01-31T23:22:24.014Z,4.88
2023-01-31T23:24:52.920Z,3.28
2023-01-31T23:27:20.421Z,3.60
2023-01-31T23:29:48.146Z,3.38
2023-01-31T23:32:15.647Z,4.47
2023-01-31T23:34:43.278Z,3.72
2023-01-31T23:37:11.147Z,3.30
2023-01-31T23:39:38.675Z,3.13
2023-01-31T23:42:07.529Z,3.33
2023-01-31T23:44:35.103Z,3.78
2023-01-31T23:47:03.011Z,4.13
2023-01-31T23:49:30.589Z,4.07
2023-01-31T23:51:58.409Z,3.75
2023-01-31T23:54:26.240Z,3.03
2023-01-31T23:56:53.942Z,2.97
2023-01-31T23:59:22.838Z,2.30
